Auburn, IN

10:36 PM EDT on March 23, 2017 (GMT -0400)
Auburn

Weather History for KGWB - February, 2013

Change the Weather History Date:

Tuesday, February 19, 2013

  Actual Average (KFWA) Record (KFWA)
Temperature  
Mean Temperature 30 °F -  
Max Temperature 44 °F 37 °F 67 °F (1930)
Min Temperature 17 °F 23 °F -7 °F (1978)
Degree Days  
Heating Degree Days 34    
Moisture  
Dew Point 19 °F    
Average Humidity 76    
Maximum Humidity 93    
Minimum Humidity 63    
Precipitation  
Precipitation 0.05 in - - ()
Sea Level Pressure  
Sea Level Pressure 29.77 in    
Wind  
Wind Speed 17 mph (WSW)    
Max Wind Speed 23 mph    
Max Gust Speed 34 mph    
Visibility 7 miles    
Events Rain , Snow    
Averages and records for this station are not official NWS values.
T = Trace of Precipitation, MM = Missing Value Source: NWS Daily Summary

Daily Weather History Graph

Daily Weather History Graph

Search for Another Location

Airport or City:

Trip Planner

Search our weather history database for the weather conditions in past years. The results will help you decide how hot, cold, wet, or windy it might be!

Date:

Astronomy

Feb. 19, 2013 Rise Set
Actual Time 7:29 AM EST 6:19 PM EST
Civil Twilight 7:01 AM EST 6:47 PM EST
Nautical Twilight 6:28 AM EST 7:19 PM EST
Astronomical Twilight 5:57 AM EST 7:51 PM EST
Moon 12:48 PM EST (2/19) 3:02 AM EST (2/19)
Length of Visible Light 11h 46m
Length of Day
10h 50m
Waxing Gibbous, 67% of the Moon is Illuminated
Feb 19
Waxing Gibbous
Feb 25
Full
Mar 4
Last Quarter
Mar 11
New
Mar 19
First Quarter

Hourly Weather History & Observations

Time (EST) Temp. Windchill Dew Point Humidity Pressure Visibility Wind Dir Wind Speed Gust Speed Precip Events Conditions
12:15 AM 44.6 °F 37.2 °F 39.2 °F 81% 29.55 in 10.0 mi South 17.3 mph 27.6 mph N/A   Light Drizzle
12:35 AM 44.6 °F 37.2 °F 39.2 °F 81% 29.54 in 10.0 mi South 17.3 mph 25.3 mph 0.01 in Rain Rain
12:55 AM 44.6 °F 37.2 °F 39.2 °F 81% 29.53 in 10.0 mi South 17.3 mph 28.8 mph 0.01 in Rain Light Rain
1:15 AM 42.8 °F 35.1 °F 39.2 °F 87% 29.52 in 7.0 mi South 16.1 mph 25.3 mph 0.02 in Rain Rain
1:35 AM 42.8 °F 34.8 °F 39.2 °F 87% 29.50 in 7.0 mi South 17.3 mph 26.5 mph 0.03 in Rain Rain
1:55 AM 42.8 °F 34.8 °F 39.2 °F 87% 29.48 in 7.0 mi South 17.3 mph 29.9 mph 0.04 in Rain Light Rain
2:35 AM 44.6 °F 36.4 °F 41.0 °F 87% 29.48 in 7.0 mi SSW 20.7 mph 34.5 mph N/A Rain Light Rain
2:55 AM 41.0 °F 32.5 °F 35.6 °F 81% 29.51 in 10.0 mi WSW 17.3 mph 31.1 mph N/A   Drizzle
3:15 AM 35.6 °F 24.5 °F 32.0 °F 87% 29.54 in 10.0 mi WSW 20.7 mph 28.8 mph N/A   Overcast
3:35 AM 33.8 °F 22.5 °F 32.0 °F 93% 29.56 in 10.0 mi WSW 19.6 mph 31.1 mph N/A   Overcast
3:55 AM 33.8 °F 23.5 °F 32.0 °F 93% 29.57 in 10.0 mi WSW 16.1 mph 28.8 mph N/A   Overcast
4:15 AM 33.8 °F 23.5 °F 30.2 °F 87% 29.56 in 10.0 mi WSW 16.1 mph 29.9 mph N/A   Overcast
4:35 AM 32.0 °F 22.1 °F 30.2 °F 93% 29.57 in 10.0 mi WSW 13.8 mph 25.3 mph N/A   Overcast
4:55 AM 32.0 °F 21.2 °F 30.2 °F 93% 29.58 in 10.0 mi WSW 16.1 mph 28.8 mph N/A   Overcast
5:15 AM 32.0 °F 21.2 °F 28.4 °F 87% 29.59 in 7.0 mi WSW 16.1 mph 26.5 mph N/A   Overcast
5:35 AM 30.2 °F 17.4 °F 26.6 °F 86% 29.62 in 10.0 mi WSW 20.7 mph 32.2 mph N/A   Overcast
5:55 AM 28.4 °F 17.0 °F 24.8 °F 86% 29.63 in 10.0 mi SW 15.0 mph 26.5 mph N/A   Overcast
6:15 AM 28.4 °F 15.8 °F 23.0 °F 80% 29.65 in 10.0 mi WSW 18.4 mph 28.8 mph N/A   Overcast
6:35 AM 28.4 °F 15.8 °F 23.0 °F 80% 29.65 in 10.0 mi WSW 18.4 mph 25.3 mph N/A   Overcast
6:55 AM 28.4 °F 15.1 °F 23.0 °F 80% 29.66 in 10.0 mi WSW 20.7 mph 28.8 mph N/A   Overcast
7:15 AM 26.6 °F 14.7 °F 21.2 °F 80% 29.67 in 10.0 mi WSW 15.0 mph 28.8 mph N/A   Overcast
7:35 AM 26.6 °F 13.4 °F 19.4 °F 74% 29.68 in 10.0 mi WSW 18.4 mph 24.2 mph N/A   Overcast
7:55 AM 24.8 °F 12.4 °F 19.4 °F 80% 29.69 in 7.0 mi WSW 15.0 mph 25.3 mph N/A Snow Light Snow
8:15 AM 24.8 °F 11.5 °F 17.6 °F 74% 29.69 in 4.0 mi WSW 17.3 mph 29.9 mph N/A Snow Light Snow
8:35 AM 24.8 °F 12.9 °F 19.4 °F 80% 29.70 in 4.0 mi WSW 13.8 mph 31.1 mph N/A Snow Light Snow
8:55 AM 24.8 °F 12.4 °F 17.6 °F 74% 29.71 in 5.0 mi WSW 15.0 mph 27.6 mph N/A Snow Light Snow
9:15 AM 23.0 °F 8.7 °F 17.6 °F 80% 29.72 in 5.0 mi WSW 18.4 mph 27.6 mph N/A Snow Light Snow
9:35 AM 23.0 °F 9.2 °F 15.8 °F 74% 29.73 in 4.0 mi WSW 17.3 mph 29.9 mph N/A Snow Light Snow
9:55 AM 23.0 °F 9.2 °F 15.8 °F 74% 29.73 in 4.0 mi WSW 17.3 mph 32.2 mph N/A Snow Light Snow
10:15 AM 23.0 °F 9.2 °F 15.8 °F 74% 29.74 in 0.8 mi WSW 17.3 mph 28.8 mph N/A Snow Light Snow
10:35 AM 23.0 °F 10.1 °F 17.6 °F 80% 29.74 in 1.5 mi WSW 15.0 mph 20.7 mph N/A Snow Light Snow
10:55 AM 23.0 °F 7.6 °F 15.8 °F 74% 29.76 in 1.8 mi WSW 21.9 mph 28.8 mph N/A Snow Light Snow
11:15 AM 23.0 °F 8.3 °F 14.0 °F 68% 29.76 in 5.0 mi West 19.6 mph 25.3 mph N/A Snow Light Snow
11:35 AM 23.0 °F 8.0 °F 14.0 °F 68% 29.77 in 7.0 mi West 20.7 mph 27.6 mph N/A Snow Light Snow
11:55 AM 21.2 °F 8.3 °F 15.8 °F 80% 29.78 in 1.2 mi WSW 13.8 mph 24.2 mph N/A Snow Light Snow
12:15 PM 21.2 °F 7.8 °F 14.0 °F 74% 29.78 in 1.2 mi West 15.0 mph 24.2 mph N/A Snow Light Snow
12:35 PM 23.0 °F 10.1 °F 14.0 °F 68% 29.79 in 5.0 mi WSW 15.0 mph 26.5 mph N/A Snow Light Snow
1:15 PM 21.2 °F 5.2 °F 12.2 °F 68% 29.80 in 4.0 mi WSW 21.9 mph 29.9 mph N/A Snow Light Snow
1:35 PM 21.2 °F 8.3 °F 12.2 °F 68% 29.80 in 4.0 mi West 13.8 mph 26.5 mph N/A Snow Light Snow
1:55 PM 21.2 °F 6.8 °F 14.0 °F 74% 29.80 in 2.5 mi West 17.3 mph 25.3 mph N/A Snow Light Snow
2:15 PM 21.2 °F 7.3 °F 14.0 °F 74% 29.81 in 3.0 mi WSW 16.1 mph 25.3 mph N/A Snow Light Snow
2:35 PM 21.2 °F 5.6 °F 12.2 °F 68% 29.82 in 5.0 mi West 20.7 mph 29.9 mph N/A Snow Light Snow
2:55 PM 21.2 °F 5.6 °F 12.2 °F 68% 29.83 in 7.0 mi West 20.7 mph 29.9 mph N/A Snow Light Snow
3:15 PM 19.4 °F 6.6 °F 14.0 °F 80% 29.85 in 1.0 mi West 12.7 mph 24.2 mph N/A Snow Light Snow
3:35 PM 21.2 °F - 12.2 °F 68% - 2.5 mi North - - N/A Snow Light Snow
3:55 PM 21.2 °F - 12.2 °F 68% - - North - - N/A   Unknown
4:35 PM 19.4 °F 2.5 °F 10.4 °F 68% 29.89 in - West 23.0 mph - N/A   Unknown
4:55 PM 19.4 °F 4.5 °F 10.4 °F 68% 29.91 in 7.0 mi West 17.3 mph 29.9 mph N/A Snow Light Snow
5:15 PM 19.4 °F 4.1 °F 8.6 °F 63% 29.92 in 10.0 mi West 18.4 mph 31.1 mph N/A   Overcast
5:35 PM 17.6 °F 1.3 °F 8.6 °F 68% 29.94 in 10.0 mi West 19.6 mph 28.8 mph N/A   Overcast
5:55 PM 17.6 °F 3.7 °F 8.6 °F 68% 29.95 in 7.0 mi West 13.8 mph 26.5 mph N/A Snow Light Snow
6:15 PM 17.6 °F 3.2 °F 8.6 °F 68% 29.96 in 7.0 mi West 15.0 mph 27.6 mph N/A Snow Light Snow
7:35 PM 17.6 °F 3.7 °F 8.6 °F 68% 29.99 in 10.0 mi WSW 13.8 mph 21.9 mph N/A   Overcast
7:55 PM 17.6 °F 4.3 °F 8.6 °F 68% 30.00 in 10.0 mi West 12.7 mph 21.9 mph N/A   Overcast
8:15 PM 17.6 °F 3.2 °F 8.6 °F 68% 30.00 in 10.0 mi West 15.0 mph 24.2 mph N/A   Overcast
8:35 PM 17.6 °F 3.2 °F 8.6 °F 68% 30.00 in 10.0 mi West 15.0 mph 23.0 mph N/A   Overcast
8:55 PM 17.6 °F 5.0 °F 8.6 °F 68% 30.01 in 10.0 mi WSW 11.5 mph 25.3 mph N/A   Overcast
9:15 PM 17.6 °F 4.3 °F 8.6 °F 68% 30.01 in 10.0 mi West 12.7 mph 24.2 mph N/A   Overcast
9:35 PM 17.6 °F 4.3 °F 8.6 °F 68% 30.02 in 10.0 mi West 12.7 mph 24.2 mph N/A   Overcast
9:55 PM 17.6 °F 2.7 °F 8.6 °F 68% 30.03 in 10.0 mi West 16.1 mph 23.0 mph N/A   Overcast
10:15 PM 17.6 °F 5.7 °F 10.4 °F 73% 30.03 in 10.0 mi West 10.4 mph 18.4 mph N/A   Overcast
10:55 PM 17.6 °F 3.2 °F 10.4 °F 73% 30.03 in 10.0 mi West 15.0 mph 21.9 mph N/A   Overcast
11:15 PM 17.6 °F 2.2 °F 10.4 °F 73% 30.03 in 10.0 mi West 17.3 mph 23.0 mph N/A   Overcast
11:35 PM 17.6 °F 3.2 °F 10.4 °F 73% 30.03 in 10.0 mi West 15.0 mph 20.7 mph N/A Snow Light Snow
11:55 PM 17.6 °F 5.0 °F 10.4 °F 73% 30.03 in 7.0 mi West 11.5 mph 23.0 mph N/A Snow Light Snow